SACO

Ingeniero Ambrosio Taravella Airport

Cordoba, Argentina
TAF SACO 180500Z 1806/1906 36008KT CAVOK TX29/1817Z TN14/1810Z BECMG 1811/1813 14010KT SCT030 TEMPO 1814/1818 5000 -TSRA SCT030 FEW030CB BKN050 BECMG 1819/1821 CAVOK BECMG 1900/1902 SCT020 BKN050 BECMG 1903/1905 4000 TSRA SCT015 FEW030CB OVC040
Issued Valid From Valid To
Oct-18 @ 05:00 UTC
(7 hours ago)
Oct-18 @ 06:00 UTC
(6 hours ago)
Oct-19 @ 06:00 UTC
(in 18 hours)
Expired Click to View Oct-18 @ 06:00 to Oct-18 @ 11:00
TAF SACO 180500Z 1806/1906 36008KT CAVOK TX29/1817Z TN14/1810Z
Wind Visibility Clouds
360° at 8 knots 10,000+ meters
  • No significant clouds
Becoming Oct-18 @ 11:00 to Oct-18 @ 19:00
BECMG 1811/1813 14010KT SCT030
Wind Visibility Clouds
140° at 10 knots 10,000+ meters
  • Scattered at 3,000' AGL
Temporary Oct-18 @ 14:00 to Oct-18 @ 18:00
TEMPO 1814/1818 5000 -TSRA SCT030 FEW030CB BKN050
Visibility Clouds Conditions
5,005 meters
  • Scattered at 3,000' AGL
  • Few at 3,000' AGL
  • Broken at 5,000' AGL
  • Light Thunderstorm
  • Light Rain
Becoming Oct-18 @ 19:00 to Oct-19 @ 00:00
BECMG 1819/1821 CAVOK
Wind Visibility Clouds Conditions
140° at 10 knots 10,000+ meters
  • No significant clouds
Becoming Oct-19 @ 00:00 to Oct-19 @ 03:00
BECMG 1900/1902 SCT020 BKN050
Wind Visibility Clouds Conditions
140° at 10 knots 10,000+ meters
  • Scattered at 2,000' AGL
  • Broken at 5,000' AGL
Becoming Oct-19 @ 03:00 to Oct-19 @ 06:00
BECMG 1903/1905 4000 TSRA SCT015 FEW030CB OVC040
Wind Visibility Clouds Conditions
140° at 10 knots 4,007 meters
  • Scattered at 1,500' AGL
  • Few at 3,000' AGL
  • Overcast at 4,000' AGL
  • Thunderstorm
  • Rain
TAF SACO 180500Z 1806/1906 36008KT CAVOK TX29/1817Z TN14/1810Z BECMG 1811/1813 14010KT SCT030 TEMPO 1814/1818 5000 -TSRA SCT030 FEW030CB BKN050 BECMG 1819/1821 CAVOK BECMG 1900/1902 SCT020 BKN050 BECMG 1903/1905 4000 TSRA SCT015 FEW030CB OVC040
Issued Oct-18 @ 05:00 UTC
(7 hours ago)
Valid From Oct-18 @ 06:00 UTC
(6 hours ago)
Valid To Oct-19 @ 06:00 UTC
(in 18 hours)
Oct-18 @ 06:00 - Oct-18 @ 11:00
Wind Visibility
360° at 8 knots 10,000+ meters
Clouds
  • No significant clouds
Becoming Oct-18 @ 11:00 - Oct-18 @ 19:00
Wind Visibility
140° at 10 knots 10,000+ meters
Clouds
  • Scattered at 3,000' AGL
Temporary Oct-18 @ 14:00 - Oct-18 @ 18:00
Clouds
  • Scattered at 3,000' AGL
  • Few at 3,000' AGL
  • Broken at 5,000' AGL
Conditions
  • Light Thunderstorm
  • Light Rain
Becoming Oct-18 @ 19:00 - Oct-19 @ 00:00
Wind Visibility
140° at 10 knots 10,000+ meters
Clouds
  • No significant clouds
Conditions
Becoming Oct-19 @ 00:00 - Oct-19 @ 03:00
Wind Visibility
140° at 10 knots 10,000+ meters
Clouds
  • Scattered at 2,000' AGL
  • Broken at 5,000' AGL
Conditions
Becoming Oct-19 @ 03:00 - Oct-19 @ 06:00
Wind Visibility
140° at 10 knots 4,007 meters
Clouds
  • Scattered at 1,500' AGL
  • Few at 3,000' AGL
  • Overcast at 4,000' AGL
Conditions
  • Thunderstorm
  • Rain